createdAt,value
2023-06-16T00:00:38.743Z,10.32
2023-06-16T00:03:07.258Z,10.19
2023-06-16T00:05:35.913Z,10.30
2023-06-16T00:08:05.189Z,10.27
2023-06-16T00:10:32.836Z,10.33
2023-06-16T00:13:00.490Z,10.26
2023-06-16T00:15:27.945Z,10.24
2023-06-16T00:17:57.737Z,10.26
2023-06-16T00:20:27.705Z,10.07
2023-06-16T00:22:55.759Z,9.94
2023-06-16T00:25:24.864Z,9.90
2023-06-16T00:27:52.357Z,9.80
2023-06-16T00:30:20.445Z,9.73
2023-06-16T00:32:48.149Z,9.71
2023-06-16T00:35:15.894Z,9.72
2023-06-16T00:37:43.602Z,9.66
2023-06-16T00:40:12.079Z,9.68
2023-06-16T00:42:41.109Z,9.67
2023-06-16T00:45:09.526Z,9.75
2023-06-16T00:47:37.169Z,9.72
2023-06-16T00:50:05.874Z,9.63
2023-06-16T00:52:37.762Z,9.55
2023-06-16T00:55:09.563Z,9.46
2023-06-16T00:57:37.387Z,9.26
2023-06-16T01:00:13.183Z,9.42
2023-06-16T01:02:40.866Z,9.36
2023-06-16T01:05:10.510Z,9.23
2023-06-16T01:07:41.961Z,9.26
2023-06-16T01:10:16.838Z,9.15
2023-06-16T01:12:54.129Z,9.11
2023-06-16T01:15:25.523Z,9.15
2023-06-16T01:17:55.907Z,9.26
2023-06-16T01:20:38.381Z,9.27
2023-06-16T01:23:17.202Z,9.10
2023-06-16T01:25:49.350Z,9.04
2023-06-16T01:28:19.447Z,9.01
2023-06-16T01:30:51.302Z,9.01
2023-06-16T01:33:22.258Z,9.05
2023-06-16T01:35:52.466Z,8.97
2023-06-16T01:38:20.918Z,8.92
2023-06-16T01:40:50.607Z,8.83
2023-06-16T01:43:18.751Z,8.74
2023-06-16T01:45:47.480Z,8.58
2023-06-16T01:48:15.460Z,8.74
2023-06-16T01:50:43.325Z,8.68
2023-06-16T01:53:10.770Z,8.76
2023-06-16T01:55:38.225Z,8.73
2023-06-16T01:58:08.724Z,8.80
2023-06-16T02:00:41.756Z,8.86
2023-06-16T02:03:13.843Z,8.81
2023-06-16T02:05:45.683Z,8.61
2023-06-16T02:08:17.214Z,8.64
2023-06-16T02:10:45.436Z,8.69
2023-06-16T02:13:14.705Z,8.68
2023-06-16T02:15:42.374Z,8.61
2023-06-16T02:18:10.805Z,8.68
2023-06-16T02:20:38.414Z,8.67
2023-06-16T02:23:06.802Z,8.70
2023-06-16T02:25:34.343Z,8.64
2023-06-16T02:28:01.814Z,8.71
2023-06-16T02:30:30.646Z,8.83
2023-06-16T02:33:02.627Z,8.92
2023-06-16T02:35:30.849Z,8.85
2023-06-16T02:37:58.563Z,8.67
2023-06-16T02:40:26.403Z,8.48
2023-06-16T02:42:53.998Z,8.35
2023-06-16T02:45:21.691Z,8.20
2023-06-16T02:47:50.611Z,8.18
2023-06-16T02:50:18.549Z,8.12
2023-06-16T02:52:46.265Z,8.17
2023-06-16T02:55:14.265Z,8.14
2023-06-16T02:57:41.845Z,8.09
2023-06-16T03:00:12.157Z,8.00
2023-06-16T03:02:39.712Z,8.01
2023-06-16T03:05:09.398Z,7.83
2023-06-16T03:07:37.403Z,7.78
2023-06-16T03:10:07.249Z,7.61
2023-06-16T03:12:34.738Z,7.64
2023-06-16T03:15:02.219Z,7.68
2023-06-16T03:17:30.041Z,7.54
2023-06-16T03:19:57.541Z,7.58
2023-06-16T03:22:26.973Z,7.56
2023-06-16T03:24:54.716Z,7.45
2023-06-16T03:27:22.237Z,7.49
2023-06-16T03:29:49.724Z,7.54
2023-06-16T03:32:17.180Z,7.58
2023-06-16T03:34:45.329Z,7.72
2023-06-16T03:37:12.841Z,7.62
2023-06-16T03:39:41.709Z,7.70
2023-06-16T03:42:09.725Z,7.76
2023-06-16T03:44:37.300Z,7.62
2023-06-16T03:47:05.130Z,7.43
2023-06-16T03:49:32.594Z,7.47
2023-06-16T03:52:00.072Z,7.35
2023-06-16T03:54:28.086Z,7.38
2023-06-16T03:56:58.051Z,7.51
2023-06-16T03:59:25.527Z,7.64
2023-06-16T04:01:53.091Z,7.60
2023-06-16T04:04:20.585Z,7.77
2023-06-16T04:06:49.208Z,7.91
2023-06-16T04:09:16.791Z,7.82
2023-06-16T04:11:44.496Z,7.73
2023-06-16T04:14:13.356Z,8.02
2023-06-16T04:16:43.380Z,8.17
2023-06-16T04:19:11.585Z,8.31
2023-06-16T04:21:42.120Z,8.46
2023-06-16T04:24:11.190Z,8.40
2023-06-16T04:26:43.047Z,8.40
2023-06-16T04:29:10.608Z,8.72
2023-06-16T04:31:39.605Z,8.87
2023-06-16T04:34:07.066Z,9.07
2023-06-16T04:36:34.551Z,9.23
2023-06-16T04:39:02.011Z,9.26
2023-06-16T04:41:29.486Z,9.44
2023-06-16T04:43:56.981Z,9.52
2023-06-16T04:46:24.570Z,9.81
2023-06-16T04:48:53.770Z,9.97
2023-06-16T04:51:21.447Z,10.16
2023-06-16T04:53:49.596Z,10.32
2023-06-16T04:56:17.085Z,10.39
2023-06-16T04:58:44.570Z,10.41
2023-06-16T05:01:12.200Z,10.78
2023-06-16T05:03:39.747Z,10.99
2023-06-16T05:06:08.671Z,11.16
2023-06-16T05:08:36.132Z,11.31
2023-06-16T05:11:03.959Z,11.56
2023-06-16T05:13:31.889Z,11.69
2023-06-16T05:15:59.349Z,11.99
2023-06-16T05:18:26.969Z,12.25
2023-06-16T05:20:54.528Z,12.72
2023-06-16T05:23:23.317Z,13.22
2023-06-16T05:25:51.206Z,13.51
2023-06-16T05:28:18.677Z,13.88
2023-06-16T05:30:46.301Z,14.02
2023-06-16T05:33:14.130Z,14.18
2023-06-16T05:35:41.642Z,14.35
2023-06-16T05:38:09.088Z,14.60
2023-06-16T05:40:37.892Z,14.74
2023-06-16T05:43:05.622Z,14.93
2023-06-16T05:45:33.079Z,15.21
2023-06-16T05:48:00.657Z,15.44
2023-06-16T05:50:28.188Z,15.71
2023-06-16T05:52:55.634Z,16.05
2023-06-16T05:55:23.227Z,16.31
2023-06-16T05:57:52.049Z,16.61
2023-06-16T06:00:20.213Z,16.96
2023-06-16T06:02:47.949Z,17.30
2023-06-16T06:05:15.490Z,17.60
2023-06-16T06:07:43.009Z,17.97
2023-06-16T06:10:11.474Z,18.22
2023-06-16T06:12:39.133Z,18.43
2023-06-16T06:15:09.574Z,18.44
2023-06-16T06:17:37.152Z,18.72
2023-06-16T06:20:05.350Z,18.95
2023-06-16T06:22:34.119Z,19.06
2023-06-16T06:25:01.733Z,19.13
2023-06-16T06:27:29.267Z,19.20
2023-06-16T06:29:56.717Z,19.50
2023-06-16T06:32:25.507Z,19.76
2023-06-16T06:34:52.984Z,20.20
2023-06-16T06:37:20.482Z,19.90
2023-06-16T06:39:47.932Z,20.37
2023-06-16T06:42:16.210Z,20.09
2023-06-16T06:44:43.692Z,20.05
2023-06-16T06:47:11.257Z,20.19
2023-06-16T06:49:40.454Z,20.60
2023-06-16T06:52:08.541Z,20.26
2023-06-16T06:54:36.024Z,20.48
2023-06-16T06:57:03.534Z,20.51
2023-06-16T06:59:30.978Z,20.00
2023-06-16T07:01:58.456Z,20.24
2023-06-16T07:04:26.377Z,20.38
2023-06-16T07:06:55.846Z,20.61
2023-06-16T07:09:30.528Z,20.86
2023-06-16T07:11:58.841Z,21.10
2023-06-16T07:14:27.503Z,20.81
2023-06-16T07:16:54.956Z,20.71
2023-06-16T07:19:24.645Z,21.15
2023-06-16T07:21:52.104Z,21.11
2023-06-16T07:24:20.971Z,21.35
2023-06-16T07:26:48.465Z,21.75
2023-06-16T07:29:15.989Z,21.82
2023-06-16T07:31:43.465Z,21.87
2023-06-16T07:34:10.914Z,21.90
2023-06-16T07:36:39.214Z,21.12
2023-06-16T07:39:06.767Z,21.36
2023-06-16T07:41:35.636Z,21.61
2023-06-16T07:44:03.144Z,21.30
2023-06-16T07:46:30.678Z,21.89
2023-06-16T07:48:58.229Z,21.93
2023-06-16T07:51:26.325Z,20.69
2023-06-16T07:53:53.775Z,21.63
2023-06-16T07:56:21.235Z,21.13
2023-06-16T07:58:50.024Z,22.00
2023-06-16T08:01:17.520Z,21.93
2023-06-16T08:03:47.497Z,21.66
2023-06-16T08:06:16.385Z,21.75
2023-06-16T08:08:44.016Z,21.28
2023-06-16T08:11:11.555Z,20.84
2023-06-16T08:13:39.017Z,21.01
2023-06-16T08:16:08.525Z,20.76
2023-06-16T08:18:36.092Z,21.04
2023-06-16T08:21:08.119Z,21.66
2023-06-16T08:23:36.548Z,21.75
2023-06-16T08:26:05.775Z,21.37
2023-06-16T08:28:33.239Z,21.45
2023-06-16T08:31:00.687Z,21.25
2023-06-16T08:33:30.495Z,21.63
2023-06-16T08:35:57.998Z,21.48
2023-06-16T08:38:25.477Z,21.19
2023-06-16T08:40:52.993Z,21.62
2023-06-16T08:43:24.358Z,21.59
2023-06-16T08:45:53.714Z,21.25
2023-06-16T08:48:21.245Z,21.38
2023-06-16T08:50:50.603Z,21.29
2023-06-16T08:53:23.564Z,21.54
2023-06-16T08:55:52.320Z,21.05
2023-06-16T08:58:21.763Z,21.49
2023-06-16T09:00:49.442Z,21.44
2023-06-16T09:03:18.336Z,21.79
2023-06-16T09:05:46.337Z,21.17
2023-06-16T09:08:15.630Z,21.51
2023-06-16T09:10:43.095Z,21.82
2023-06-16T09:13:10.551Z,21.75
2023-06-16T09:15:38.070Z,21.37
2023-06-16T09:18:07.521Z,21.57
2023-06-16T09:20:40.032Z,21.45
2023-06-16T09:23:09.474Z,21.51
2023-06-16T09:25:39.278Z,21.51
2023-06-16T09:28:09.195Z,21.53
2023-06-16T09:30:38.557Z,21.01
2023-06-16T09:33:07.252Z,21.30
2023-06-16T09:35:34.836Z,21.88
2023-06-16T09:38:04.862Z,21.66
2023-06-16T09:40:33.892Z,22.19
2023-06-16T09:43:05.478Z,21.71
2023-06-16T09:45:34.537Z,21.69
2023-06-16T09:48:04.532Z,21.74
2023-06-16T09:50:33.803Z,22.37
2023-06-16T09:53:05.734Z,21.52
2023-06-16T09:55:35.584Z,21.24
2023-06-16T09:58:04.493Z,22.11
2023-06-16T10:00:34.250Z,22.18
2023-06-16T10:03:03.684Z,22.02
2023-06-16T10:05:35.727Z,21.55
2023-06-16T10:08:05.435Z,22.11
2023-06-16T10:10:34.739Z,21.71
2023-06-16T10:13:06.258Z,21.54
2023-06-16T10:15:38.973Z,21.86
2023-06-16T10:18:12.112Z,22.28
2023-06-16T10:20:41.365Z,22.47
2023-06-16T10:23:10.305Z,22.27
2023-06-16T10:25:39.532Z,21.55
2023-06-16T10:28:12.374Z,22.18
2023-06-16T10:30:41.048Z,22.19
2023-06-16T10:33:17.569Z,22.34
2023-06-16T10:35:55.600Z,22.40
2023-06-16T10:38:35.697Z,22.38
2023-06-16T10:41:03.719Z,21.99
2023-06-16T10:43:32.536Z,22.25
2023-06-16T10:46:14.330Z,22.54
2023-06-16T10:49:19.506Z,22.57
2023-06-16T10:51:49.867Z,22.50
2023-06-16T10:54:45.480Z,22.37
2023-06-16T10:57:15.080Z,22.37
2023-06-16T10:59:58.652Z,22.57
2023-06-16T11:02:27.964Z,22.67
2023-06-16T11:05:10.898Z,22.26
2023-06-16T11:07:39.524Z,22.43
2023-06-16T11:10:08.171Z,22.93
2023-06-16T11:12:36.082Z,23.07
2023-06-16T11:15:06.375Z,23.19
2023-06-16T11:17:34.507Z,23.13
2023-06-16T11:20:07.044Z,23.09
2023-06-16T11:22:36.286Z,23.02
2023-06-16T11:25:05.677Z,23.09
2023-06-16T11:27:34.039Z,22.77
2023-06-16T11:30:04.231Z,23.11
2023-06-16T11:32:35.824Z,23.10
2023-06-16T11:35:04.241Z,23.05
2023-06-16T11:37:42.172Z,23.19
2023-06-16T11:40:12.448Z,23.19
2023-06-16T11:42:39.944Z,23.22
2023-06-16T11:45:08.195Z,23.30
2023-06-16T11:47:37.098Z,22.91
2023-06-16T11:50:06.656Z,22.47
2023-06-16T11:52:34.192Z,22.58
2023-06-16T11:55:02.671Z,23.03
2023-06-16T11:57:30.137Z,23.58
2023-06-16T11:59:58.034Z,23.77
2023-06-16T12:02:25.874Z,22.87
2023-06-16T12:04:55.683Z,23.23
2023-06-16T12:07:23.318Z,23.00
2023-06-16T12:09:56.063Z,22.85
2023-06-16T12:12:26.307Z,23.52
2023-06-16T12:14:55.989Z,23.41
2023-06-16T12:17:25.333Z,23.40
2023-06-16T12:19:54.630Z,23.10
2023-06-16T12:22:23.739Z,23.03
2023-06-16T12:24:51.278Z,23.55
2023-06-16T12:27:26.508Z,23.55
2023-06-16T12:29:57.883Z,23.90
2023-06-16T12:32:31.721Z,24.18
2023-06-16T12:35:01.162Z,23.95
2023-06-16T12:37:29.398Z,24.00
2023-06-16T12:40:00.995Z,24.31
2023-06-16T12:42:30.786Z,23.90
2023-06-16T12:45:00.896Z,24.58
2023-06-16T12:47:29.001Z,24.56
2023-06-16T12:49:58.209Z,24.08
2023-06-16T12:52:28.369Z,24.11
2023-06-16T12:54:57.471Z,24.14
2023-06-16T12:57:26.703Z,24.02
2023-06-16T12:59:54.523Z,24.17
2023-06-16T13:02:23.217Z,24.14
2023-06-16T13:04:50.873Z,23.94
2023-06-16T13:07:18.633Z,23.98
2023-06-16T13:09:47.497Z,24.68
2023-06-16T13:12:15.685Z,24.48
2023-06-16T13:14:43.209Z,24.43
2023-06-16T13:17:10.811Z,24.22
2023-06-16T13:19:38.657Z,24.40
2023-06-16T13:22:07.865Z,24.45
2023-06-16T13:24:36.088Z,24.73
2023-06-16T13:27:05.275Z,24.61
2023-06-16T13:29:32.788Z,24.65
2023-06-16T13:32:00.266Z,24.10
2023-06-16T13:34:27.705Z,24.19
2023-06-16T13:36:55.159Z,24.71
2023-06-16T13:39:22.740Z,25.07
2023-06-16T13:41:50.483Z,25.26
2023-06-16T13:44:19.367Z,25.81
2023-06-16T13:46:48.461Z,25.19
2023-06-16T13:49:15.961Z,25.33
2023-06-16T13:51:43.918Z,25.43
2023-06-16T13:54:11.668Z,25.14
2023-06-16T13:56:42.158Z,24.93
2023-06-16T13:59:09.639Z,25.44
2023-06-16T14:01:38.460Z,25.04
2023-06-16T14:04:06.349Z,25.13
2023-06-16T14:06:33.822Z,25.30
2023-06-16T14:09:01.303Z,25.16
2023-06-16T14:11:28.824Z,25.71
2023-06-16T14:13:56.338Z,24.59
2023-06-16T14:16:23.819Z,24.88
2023-06-16T14:18:53.341Z,25.50
2023-06-16T14:21:20.849Z,25.86
2023-06-16T14:23:49.469Z,25.93
2023-06-16T14:26:16.966Z,25.27
2023-06-16T14:28:44.496Z,26.01
2023-06-16T14:31:12.008Z,26.37
2023-06-16T14:33:39.517Z,26.40
2023-06-16T14:36:08.538Z,26.54
2023-06-16T14:38:35.988Z,26.96
2023-06-16T14:41:03.453Z,26.95
2023-06-16T14:43:30.895Z,27.47
2023-06-16T14:45:58.453Z,28.04
2023-06-16T14:48:26.004Z,26.81
2023-06-16T14:50:53.446Z,26.48
2023-06-16T14:53:22.318Z,25.43
2023-06-16T14:55:49.802Z,25.45
2023-06-16T14:58:17.283Z,25.16
2023-06-16T15:00:44.784Z,25.90
2023-06-16T15:03:12.416Z,26.48
2023-06-16T15:05:40.117Z,26.32
2023-06-16T15:08:07.613Z,26.03
2023-06-16T15:10:37.017Z,26.40
2023-06-16T15:13:04.499Z,26.78
2023-06-16T15:15:32.053Z,26.62
2023-06-16T15:17:59.682Z,26.85
2023-06-16T15:20:27.205Z,26.55
2023-06-16T15:22:54.702Z,25.42
2023-06-16T15:25:23.102Z,26.15
2023-06-16T15:27:59.763Z,26.50
2023-06-16T15:30:34.848Z,26.68
2023-06-16T15:33:02.353Z,25.71
2023-06-16T15:35:29.846Z,26.19
2023-06-16T15:37:57.378Z,26.18
2023-06-16T15:40:24.874Z,26.56
2023-06-16T15:43:00.887Z,25.61
2023-06-16T15:45:28.441Z,25.40
2023-06-16T15:47:55.931Z,26.20
2023-06-16T15:50:23.804Z,25.70
2023-06-16T15:52:51.266Z,25.59
2023-06-16T15:55:18.801Z,25.65
2023-06-16T15:57:46.417Z,25.83
2023-06-16T16:00:16.165Z,25.60
2023-06-16T16:02:43.827Z,26.38
2023-06-16T16:05:11.661Z,26.07
2023-06-16T16:07:39.129Z,25.50
2023-06-16T16:10:07.589Z,24.77
2023-06-16T16:12:35.773Z,24.80
2023-06-16T16:15:03.349Z,25.38
2023-06-16T16:17:32.176Z,24.62
2023-06-16T16:19:59.642Z,24.86
2023-06-16T16:22:27.224Z,25.30
2023-06-16T16:24:54.836Z,25.97
2023-06-16T16:27:22.294Z,25.12
2023-06-16T16:29:49.871Z,25.09
2023-06-16T16:32:17.502Z,24.91
2023-06-16T16:34:46.306Z,25.40
2023-06-16T16:37:13.799Z,25.80
2023-06-16T16:39:41.321Z,25.48
2023-06-16T16:42:09.334Z,25.77
2023-06-16T16:44:36.809Z,24.31
2023-06-16T16:47:04.500Z,24.28
2023-06-16T16:49:32.123Z,24.75
2023-06-16T16:52:01.239Z,24.52
2023-06-16T16:54:28.695Z,25.11
2023-06-16T16:56:56.156Z,25.28
2023-06-16T16:59:24.140Z,25.26
2023-06-16T17:01:51.770Z,25.27
2023-06-16T17:04:22.280Z,25.12
2023-06-16T17:06:50.288Z,24.97
2023-06-16T17:09:19.131Z,24.88
2023-06-16T17:11:46.649Z,24.55
2023-06-16T17:14:14.204Z,23.92
2023-06-16T17:16:44.605Z,24.18
2023-06-16T17:19:13.242Z,24.57
2023-06-16T17:21:40.954Z,24.44
2023-06-16T17:24:08.435Z,24.43
2023-06-16T17:26:37.264Z,24.18
2023-06-16T17:29:04.788Z,24.21
2023-06-16T17:31:32.286Z,24.00
2023-06-16T17:33:59.745Z,24.51
2023-06-16T17:36:27.238Z,25.00
2023-06-16T17:38:54.695Z,25.22
2023-06-16T17:41:22.188Z,24.48
2023-06-16T17:43:51.430Z,24.55
2023-06-16T17:46:21.589Z,24.05
2023-06-16T17:48:49.119Z,23.75
2023-06-16T17:51:16.594Z,24.03
2023-06-16T17:53:44.071Z,23.59
2023-06-16T17:56:11.515Z,23.58
2023-06-16T17:58:38.965Z,23.64
2023-06-16T18:01:07.754Z,22.82
2023-06-16T18:03:35.425Z,22.86
2023-06-16T18:06:03.205Z,22.62
2023-06-16T18:08:30.757Z,22.38
2023-06-16T18:10:58.230Z,22.09
2023-06-16T18:13:25.711Z,22.22
2023-06-16T18:15:53.165Z,21.93
2023-06-16T18:18:22.022Z,22.06
2023-06-16T18:20:49.468Z,21.82
2023-06-16T18:23:17.044Z,21.63
2023-06-16T18:25:44.534Z,21.79
2023-06-16T18:28:12.005Z,21.88
2023-06-16T18:30:39.467Z,21.63
2023-06-16T18:33:06.983Z,21.56
2023-06-16T18:35:35.870Z,21.40
2023-06-16T18:38:03.364Z,21.33
2023-06-16T18:40:30.833Z,21.31
2023-06-16T18:42:58.997Z,21.07
2023-06-16T18:45:26.444Z,21.00
2023-06-16T18:47:53.968Z,20.96
2023-06-16T18:50:21.800Z,20.88
2023-06-16T18:52:50.781Z,20.98
2023-06-16T18:55:18.883Z,20.93
2023-06-16T18:57:46.443Z,20.81
2023-06-16T19:00:14.426Z,20.68
2023-06-16T19:02:42.019Z,20.60
2023-06-16T19:05:11.764Z,20.67
2023-06-16T19:07:39.498Z,20.55
2023-06-16T19:10:09.905Z,20.37
2023-06-16T19:12:37.425Z,20.31
2023-06-16T19:15:05.965Z,20.40
2023-06-16T19:17:33.485Z,20.15
2023-06-16T19:20:02.154Z,20.08
2023-06-16T19:22:30.168Z,20.06
2023-06-16T19:24:57.636Z,20.00
2023-06-16T19:27:26.852Z,19.92
2023-06-16T19:29:55.575Z,19.92
2023-06-16T19:32:23.146Z,19.83
2023-06-16T19:34:50.679Z,19.64
2023-06-16T19:37:18.147Z,19.56
2023-06-16T19:39:45.576Z,19.68
2023-06-16T19:42:13.043Z,19.59
2023-06-16T19:44:41.829Z,19.52
2023-06-16T19:47:09.502Z,19.49
2023-06-16T19:49:37.166Z,19.37
2023-06-16T19:52:05.082Z,19.28
2023-06-16T19:54:32.593Z,19.14
2023-06-16T19:57:00.038Z,19.02
2023-06-16T19:59:27.477Z,18.83
2023-06-16T20:01:56.432Z,18.72
2023-06-16T20:04:23.907Z,18.58
2023-06-16T20:06:51.372Z,18.42
2023-06-16T20:09:18.872Z,18.27
2023-06-16T20:11:46.633Z,18.14
2023-06-16T20:14:14.075Z,18.05
2023-06-16T20:16:41.599Z,17.93
2023-06-16T20:19:10.395Z,17.70
2023-06-16T20:21:37.893Z,17.52
2023-06-16T20:24:05.830Z,17.24
2023-06-16T20:26:33.478Z,17.12
2023-06-16T20:29:00.962Z,17.02
2023-06-16T20:31:28.484Z,16.83
2023-06-16T20:33:56.056Z,16.74
2023-06-16T20:36:27.344Z,16.72
2023-06-16T20:38:55.000Z,16.58
2023-06-16T20:41:29.471Z,16.47
2023-06-16T20:43:57.176Z,16.42
2023-06-16T20:46:25.097Z,16.24
2023-06-16T20:48:52.974Z,16.09
2023-06-16T20:51:21.696Z,15.97
2023-06-16T20:53:51.472Z,16.02
2023-06-16T20:56:19.016Z,15.89
2023-06-16T20:58:47.384Z,15.78
2023-06-16T21:01:19.312Z,15.63
2023-06-16T21:03:47.870Z,15.50
2023-06-16T21:06:15.524Z,15.49
2023-06-16T21:08:42.972Z,15.38
2023-06-16T21:11:11.790Z,15.27
2023-06-16T21:13:40.287Z,15.20
2023-06-16T21:16:12.610Z,15.03
2023-06-16T21:18:40.155Z,14.93
2023-06-16T21:21:07.659Z,14.88
2023-06-16T21:23:35.168Z,14.78
2023-06-16T21:26:02.633Z,14.66
2023-06-16T21:28:31.556Z,14.65
2023-06-16T21:30:59.020Z,14.56
2023-06-16T21:33:27.138Z,14.49
2023-06-16T21:35:54.635Z,14.40
2023-06-16T21:38:30.232Z,14.25
2023-06-16T21:40:57.762Z,14.21
2023-06-16T21:43:25.278Z,14.08
2023-06-16T21:45:54.162Z,13.80
2023-06-16T21:48:22.384Z,13.72
2023-06-16T21:50:49.874Z,13.62
2023-06-16T21:53:17.383Z,13.41
2023-06-16T21:55:44.848Z,13.25
2023-06-16T21:58:12.325Z,13.21
2023-06-16T22:00:39.785Z,13.17
2023-06-16T22:03:09.582Z,13.14
2023-06-16T22:05:38.422Z,12.98
2023-06-16T22:08:06.241Z,13.10
2023-06-16T22:10:33.750Z,13.23
2023-06-16T22:13:01.717Z,13.18
2023-06-16T22:15:29.236Z,13.11
2023-06-16T22:17:57.895Z,13.02
2023-06-16T22:20:27.446Z,13.02
2023-06-16T22:22:55.106Z,12.87
2023-06-16T22:25:23.256Z,12.89
2023-06-16T22:27:51.721Z,12.75
2023-06-16T22:30:21.765Z,12.66
2023-06-16T22:32:50.640Z,12.64
2023-06-16T22:35:18.126Z,12.57
2023-06-16T22:37:46.962Z,12.49
2023-06-16T22:40:14.707Z,12.41
2023-06-16T22:42:42.181Z,12.27
2023-06-16T22:45:11.138Z,12.16
2023-06-16T22:47:41.100Z,12.03
2023-06-16T22:50:10.279Z,12.08
2023-06-16T22:52:40.951Z,11.89
2023-06-16T22:55:10.930Z,11.76
2023-06-16T22:57:38.436Z,11.78
2023-06-16T23:00:10.355Z,11.67
2023-06-16T23:02:37.910Z,11.59
2023-06-16T23:05:06.378Z,11.61
2023-06-16T23:07:34.867Z,11.58
2023-06-16T23:10:02.412Z,11.55
2023-06-16T23:12:31.255Z,11.44
2023-06-16T23:14:58.709Z,11.41
2023-06-16T23:17:26.274Z,11.33
2023-06-16T23:19:54.766Z,11.23
2023-06-16T23:22:22.820Z,11.27
2023-06-16T23:24:50.464Z,11.24
2023-06-16T23:27:18.001Z,11.28
2023-06-16T23:29:47.261Z,11.21
2023-06-16T23:32:14.728Z,11.14
2023-06-16T23:34:43.430Z,11.27
2023-06-16T23:37:12.706Z,11.12
2023-06-16T23:39:40.288Z,11.06
2023-06-16T23:42:09.438Z,11.09
2023-06-16T23:44:36.944Z,11.03
2023-06-16T23:47:06.648Z,10.96
2023-06-16T23:49:34.284Z,10.90
2023-06-16T23:52:01.738Z,10.87
2023-06-16T23:54:29.327Z,10.80
2023-06-16T23:56:56.779Z,10.65
2023-06-16T23:59:24.568Z,10.54
